Latest Weather Observations for Swan Hill

IDV60801

Issued at 6:02 pm EDT Monday 5 December 2022 (issued every 10 minutes, with the page automatically refreshed every 10 minutes)

About weather observations | Map of weather stations | Latest weather observations for VIC | Other Formats
Station Details ID: 077094 Name: SWAN HILL AERODROME Lat: -35.38 Lon: 143.54 Height: 71.0 m
Data from the previous 72 hours. | See also: Recent months at Swan Hill
Date/Time
EDT
Temp
°C
App
Temp
°C
Dew
Point
°C
Rel
Hum
%
Delta-T
°C
Wind Press
QNH
hPa
Press
MSL
hPa
Rain since
9am
mm
Dir  Spd
km/h
Gust
km/h
Spd
kts
Gust
kts
05/06:00pm 22.7 15.8 4.7 31 8.9 SSW 30 46 16 25 1010.2 1009.9 0.0
05/05:43pm 23.0 16.4 4.0 29 9.3 SSW 28 46 15 25 1010.0 1009.7 0.0
05/05:30pm 22.8 15.8 4.3 30 9.1 SSW 30 44 16 24 1009.9 1009.6 0.0
05/05:06pm 23.3 16.4 4.8 30 9.2 SSW 30 52 16 28 1009.8 1009.5 0.0
05/05:00pm 23.4 16.6 4.9 30 9.3 SSW 30 43 16 23 1009.8 1009.5 0.0
05/04:31pm 24.4 18.0 5.2 29 9.7 SSW 28 48 15 26 1009.6 1009.3 0.0
05/04:30pm 24.6 18.6 5.4 29 9.8 SSW 26 48 14 26 1009.5 1009.2 0.0
05/04:10pm 24.8 18.3 4.5 27 10.2 SSW 28 48 15 26 1009.6 1009.3 0.0
05/04:00pm 24.9 19.4 5.7 29 9.8 S 24 39 13 21 1009.6 1009.3 0.0
05/03:36pm 24.0 17.5 4.9 29 9.6 SSW 28 46 15 25 1009.8 1009.5 0.0
05/03:30pm 24.1 18.6 5.9 31 9.3 SSW 24 43 13 23 1009.7 1009.4 0.0
05/03:00pm 23.6 18.2 6.4 33 8.9 S 24 41 13 22 1010.0 1009.7 0.0
05/02:30pm 23.0 17.6 6.3 34 8.5 SSW 24 37 13 20 1010.4 1010.1 0.0
05/02:00pm 23.0 17.3 6.7 35 8.4 SSW 26 39 14 21 1010.7 1010.4 0.0
05/01:30pm 22.8 17.5 7.0 36 8.2 SSW 24 39 13 21 1010.7 1010.4 0.0
05/01:21pm 22.8 16.7 6.6 35 8.3 SSW 28 46 15 25 1010.7 1010.4 0.0
05/01:00pm 22.1 16.7 6.3 36 8.0 SSW 24 35 13 19 1010.5 1010.2 0.0
05/12:30pm 21.8 16.2 7.2 39 7.5 SSW 26 39 14 21 1010.5 1010.2 0.0
05/12:00pm 22.7 18.1 8.0 39 7.8 S 22 33 12 18 1010.5 1010.2 0.0
05/11:30am 20.7 15.0 8.4 45 6.5 SSW 28 48 15 26 1010.7 1010.4 0.0
05/11:23am 20.7 15.0 8.4 45 6.5 SW 28 46 15 25 1010.5 1010.2 0.0
05/11:00am 21.0 15.8 8.9 46 6.4 SSW 26 39 14 21 1010.5 1010.2 0.0
05/10:32am 19.5 14.0 9.1 51 5.5 SSW 28 46 15 25 1010.5 1010.2 0.0
05/10:30am 19.6 13.9 9.8 53 5.2 SSW 30 46 16 25 1010.5 1010.2 0.0
05/10:29am 19.9 14.6 9.8 52 5.4 SSW 28 46 15 25 1010.4 1010.1 0.0
05/10:00am 18.8 13.6 10.1 57 4.7 SSW 28 39 15 21 1010.5 1010.2 0.0
05/09:30am 17.8 13.5 10.9 64 3.7 SSW 24 35 13 19 1010.2 1009.9 0.0
05/09:00am 17.7 12.7 11.0 65 3.6 SW 28 39 15 21 1010.2 1009.9 0.0
05/08:30am 17.6 13.8 11.2 66 3.5 SW 22 30 12 16 1010.0 1009.7 0.0
05/08:00am 17.3 11.9 10.9 66 3.5 SW 30 41 16 22 1009.8 1009.5 0.0
05/07:30am 17.1 12.5 11.2 68 3.2 SW 26 33 14 18 1009.5 1009.2 0.0
05/07:00am 16.9 12.4 11.4 70 3.0 SW 26 37 14 20 1009.3 1009.0 0.0
05/06:30am 16.6 13.3 11.5 72 2.8 SW 20 32 11 17 1008.2 1007.9 0.0
05/06:00am 16.6 12.3 12.0 74 2.5 SW 26 41 14 22 1008.3 1008.0 0.0
05/05:30am 16.6 12.0 12.4 76 2.3 SW 28 39 15 21 1008.1 1007.8 0.0
05/05:00am 16.7 11.7 12.3 75 2.4 SW 30 46 16 25 1007.5 1007.2 0.0
05/04:57am 16.8 11.4 12.3 75 2.5 SW 32 50 17 27 1007.6 1007.3 0.0
05/04:30am 17.1 12.5 12.2 73 2.7 WSW 28 39 15 21 1008.0 1007.7 0.0
05/04:00am 17.5 12.1 12.2 71 2.9 WSW 32 44 17 24 1007.7 1007.4 0.0
05/03:30am 18.6 12.8 11.4 63 3.9 WSW 33 41 18 22 1007.4 1007.1 0.0
05/03:00am 19.5 14.1 9.4 52 5.4 WSW 28 39 15 21 1007.2 1006.9 0.0
05/02:30am 20.3 16.0 8.0 45 6.4 WSW 20 30 11 16 1007.1 1006.8 0.0
05/02:00am 22.0 15.9 6.7 37 7.9 WSW 28 35 15 19 1007.6 1007.3 0.0
05/01:30am 22.8 18.6 5.7 33 8.6 WSW 17 20 9 11 1007.6 1007.3 0.0
05/01:00am 24.3 20.6 7.9 35 8.7 WSW 17 22 9 12 1007.9 1007.6 0.0
05/12:30am 25.2 21.5 9.5 37 8.6 W 19 24 10 13 1007.7 1007.4 0.0
05/12:00am 25.3 21.6 9.6 37 8.7 W 19 22 10 12 1007.8 1007.5 0.0
 
Date/Time
EDT
Temp
°C
App
Temp
°C
Dew
Point
°C
Rel
Hum
%
Delta-T
°C
Wind Press
QNH
hPa
Press
MSL
hPa
Rain since
9am
mm
Dir  Spd
km/h
Gust
km/h
Spd
kts
Gust
kts
04/11:30pm 25.4 22.4 10.8 40 8.2 W 17 20 9 11 1007.8 1007.5 0.0
04/11:00pm 22.9 21.1 12.2 51 6.1 NNW 13 15 7 8 1007.4 1007.1 0.0
04/10:30pm 25.3 23.6 11.1 41 8.0 N 11 17 6 9 1007.4 1007.1 0.0
04/10:00pm 27.4 23.8 10.6 35 9.5 N 20 30 11 16 1007.0 1006.7 0.0
04/09:30pm 28.3 24.2 10.0 32 10.3 NNE 22 30 12 16 1006.9 1006.6 0.0
04/09:00pm 28.5 25.0 10.2 32 10.4 NNE 19 24 10 13 1007.0 1006.7 0.0
04/08:30pm 29.0 25.7 9.7 30 10.8 N 17 22 9 12 1007.2 1006.9 0.0
04/08:00pm 30.6 26.6 8.3 25 12.4 N 19 26 10 14 1007.2 1006.9 0.0
04/07:30pm 32.4 28.8 6.6 20 14.0 N 15 20 8 11 1007.2 1006.9 0.0
04/07:00pm 34.2 30.4 3.9 15 15.9 NNW 13 20 7 11 1007.1 1006.8 0.0
04/06:30pm 34.1 29.1 4.7 16 15.6 NNW 20 28 11 15 1007.0 1006.7 0.0
04/06:00pm 33.7 28.7 4.4 16 15.5 N 20 28 11 15 1007.1 1006.8 0.0
04/05:30pm 34.3 29.0 4.9 16 15.7 NNW 22 30 12 16 1007.5 1007.2 0.0
04/05:00pm 34.1 28.5 5.6 17 15.4 N 24 35 13 19 1007.8 1007.5 0.0
04/04:30pm 34.1 28.5 5.6 17 15.4 NNW 24 37 13 20 1008.2 1007.9 0.0
04/04:00pm 33.8 29.5 7.0 19 14.8 N 19 28 10 15 1008.4 1008.1 0.0
04/03:30pm 34.4 29.8 6.7 18 15.2 N 20 32 11 17 1008.9 1008.6 0.0
04/03:00pm 34.8 29.4 6.2 17 15.6 N 24 32 13 17 1009.3 1009.0 0.0
04/02:30pm 34.4 29.5 6.7 18 15.2 NNW 22 41 12 22 1009.8 1009.5 0.0
04/02:00pm 33.8 29.1 6.2 18 15.0 N 20 32 11 17 1010.2 1009.9 0.0
04/01:30pm 33.4 28.7 5.9 18 14.8 NNW 20 30 11 16 1010.6 1010.3 0.0
04/01:00pm 33.4 28.7 5.9 18 14.9 NNW 20 30 11 16 1011.0 1010.7 0.0
04/12:30pm 33.5 28.4 7.5 20 14.4 N 24 32 13 17 1011.4 1011.1 0.0
04/12:00pm 32.6 27.4 7.4 21 13.9 N 24 37 13 20 1011.8 1011.5 0.0
04/11:30am 33.2 28.5 9.3 23 13.6 N 24 32 13 17 1012.2 1011.9 0.0
04/11:00am 31.3 26.4 8.3 24 12.8 N 24 33 13 18 1012.5 1012.2 0.0
04/10:30am 30.9 26.3 8.0 24 12.6 NNW 22 35 12 19 1012.8 1012.5 0.0
04/10:00am 30.0 25.6 9.0 27 11.7 NNW 22 28 12 15 1013.0 1012.8 0.0
04/09:30am 29.0 24.9 10.2 31 10.6 N 22 28 12 15 1013.0 1012.8 0.0
04/09:00am 28.0 25.0 10.7 34 9.8 NNW 17 22 9 12 1013.2 1013.0 0.0
04/08:30am 26.1 22.9 11.1 39 8.5 N 19 22 10 12 1013.1 1012.9 0.0
04/08:00am 24.1 22.3 12.1 47 6.9 N 13 17 7 9 1013.0 1012.8 0.0
04/07:30am 21.5 21.2 13.4 60 4.7 NNE 7 9 4 5 1012.8 1012.5 0.0
04/07:00am 18.8 18.0 12.8 68 3.4 NNE 9 11 5 6 1012.5 1012.2 0.0
04/06:30am 17.1 17.5 12.4 74 2.6 NNE 2 6 1 3 1012.4 1012.1 0.0
04/06:00am 17.0 16.4 12.3 74 2.6 NNE 7 7 4 4 1012.2 1011.9 0.0
04/05:30am 18.3 16.9 12.1 67 3.4 NNE 11 13 6 7 1011.8 1011.5 0.0
04/05:00am 17.3 17.0 12.6 74 2.6 N 6 7 3 4 1011.7 1011.4 0.0
04/04:30am 17.2 16.2 12.3 73 2.7 N 9 11 5 6 1011.8 1011.5 0.0
04/04:00am 19.1 17.4 12.6 66 3.7 N 13 17 7 9 1011.7 1011.4 0.0
04/03:30am 18.1 16.7 12.3 69 3.2 N 11 13 6 7 1012.0 1011.7 0.0
04/03:00am 18.1 16.6 11.9 67 3.4 N 11 13 6 7 1011.9 1011.6 0.0
04/02:30am 19.2 18.0 11.7 62 4.1 N 9 11 5 6 1012.1 1011.8 0.0
04/02:00am 19.3 18.7 11.8 62 4.2 N 6 7 3 4 1012.3 1012.0 0.0
04/01:30am 20.1 19.3 11.6 58 4.7 N 7 9 4 5 1012.4 1012.1 0.0
04/01:00am 20.3 19.2 11.8 58 4.7 N 9 9 5 5 1012.7 1012.4 0.0
04/12:30am 20.4 19.2 11.6 57 4.9 N 9 9 5 5 1012.8 1012.5 0.0
04/12:00am 21.1 19.8 11.2 53 5.5 N 9 11 5 6 1012.9 1012.7 0.0
 
Date/Time
EDT
Temp
°C
App
Temp
°C
Dew
Point
°C
Rel
Hum
%
Delta-T
°C
Wind Press
QNH
hPa
Press
MSL
hPa
Rain since
9am
mm
Dir  Spd
km/h
Gust
km/h
Spd
kts
Gust
kts
03/11:30pm 22.8 21.0 10.9 47 6.6 N 11 13 6 7 1012.9 1012.7 0.0
03/11:24pm 22.8 20.7 11.2 48 6.5 N 13 15 7 8 1012.9 1012.7 0.0
03/11:05pm 23.2 21.0 10.9 46 6.8 N 13 15 7 8 1013.0 1012.8 0.0
03/11:00pm 23.4 21.2 10.8 45 7.0 N 13 17 7 9 1012.9 1012.7 0.0
03/10:30pm 23.2 21.5 11.3 47 6.7 NNE 11 13 6 7 1012.8 1012.5 0.0
03/10:00pm 23.5 21.5 11.5 47 6.8 NNE 13 17 7 9 1012.7 1012.4 0.0
03/09:30pm 23.7 21.9 10.7 44 7.2 NNE 11 13 6 7 1012.6 1012.3 0.0
03/09:00pm 24.8 22.5 10.3 40 8.1 NE 13 15 7 8 1012.3 1012.0 0.0
03/08:30pm 25.7 23.3 9.9 37 8.8 NE 13 15 7 8 1012.2 1011.9 0.0
03/08:00pm 27.5 25.0 9.8 33 9.9 NE 13 19 7 10 1012.0 1011.7 0.0
03/07:30pm 29.2 25.3 8.8 28 11.3 NE 19 24 10 13 1011.8 1011.5 0.0
03/07:00pm 30.1 26.2 8.5 26 12.0 NE 19 26 10 14 1011.7 1011.4 0.0
03/06:30pm 30.9 27.5 9.2 26 12.2 NNE 17 26 9 14 1011.5 1011.2 0.0
03/06:00pm 31.7 28.5 6.7 21 13.6 NNE 13 19 7 10 1011.5 1011.2 0.0
03/05:30pm 31.7 28.2 8.7 24 12.9 NNE 17 22 9 12 1011.6 1011.3 0.0
03/05:00pm 32.0 29.0 7.6 22 13.4 NE 13 22 7 12 1011.8 1011.5 0.0
03/04:30pm 32.5 30.7 8.0 22 13.6 ENE 7 15 4 8 1012.1 1011.8 0.0
03/04:00pm 32.5 28.5 6.7 20 14.0 N 17 26 9 14 1012.2 1011.9 0.0
03/03:30pm 32.3 28.7 8.5 23 13.3 N 17 26 9 14 1012.6 1012.3 0.0
03/03:00pm 30.2 27.1 7.4 24 12.4 N 13 24 7 13 1012.8 1012.5 0.0
03/02:30pm 29.9 26.7 8.3 26 11.9 NE 15 20 8 11 1013.3 1013.1 0.0
03/02:00pm 31.5 28.7 8.5 24 12.8 NW 13 28 7 15 1013.6 1013.4 0.0
03/01:30pm 30.6 28.0 7.7 24 12.5 NNW 11 24 6 13 1014.0 1013.8 0.0
03/01:00pm 31.5 27.9 8.5 24 12.8 N 17 26 9 14 1014.3 1014.1 0.0
03/12:30pm 30.5 27.8 8.8 26 12.1 N 13 26 7 14 1014.7 1014.5 0.0
03/12:00pm 29.1 26.0 8.7 28 11.3 NNW 15 24 8 13 1014.9 1014.7 0.0
03/11:30am 29.9 26.4 8.9 27 11.7 NNW 17 26 9 14 1015.1 1014.9 0.0
03/11:00am 29.2 25.2 8.3 27 11.5 N 19 24 10 13 1015.3 1015.1 0.0
03/10:30am 28.7 24.7 10.4 32 10.4 N 22 28 12 15 1015.4 1015.2 0.0
03/10:00am 28.3 25.3 10.5 33 10.1 N 17 26 9 14 1015.4 1015.2 0.0
03/09:30am 27.4 24.6 11.4 37 9.2 N 17 24 9 13 1015.6 1015.4 0.0
03/09:00am 25.7 23.4 11.8 42 7.9 NNW 15 20 8 11 1015.7 1015.5 0.0
03/08:30am 23.5 23.4 13.9 55 5.6 NE 7 11 4 6 1015.6 1015.4 0.0
03/08:00am 22.2 24.5 16.7 71 3.4 CALM 0 0 0 0 1015.2 1015.0 0.0
03/07:30am 19.9 21.0 16.7 82 1.9 ESE 6 6 3 3 1014.9 1014.7 0.0
03/07:00am 17.1 17.7 15.8 92 0.8 ESE 7 11 4 6 1014.6 1014.4 0.0
03/06:30am 15.4 15.4 15.2 99 0.1 ESE 9 11 5 6 1014.4 1014.2 0.0
03/06:00am 14.9 14.7 14.6 98 0.2 ESE 9 11 5 6 1014.0 1013.8 0.0
03/05:30am 14.6 15.9 14.1 97 0.3 CALM 0 0 0 0 1013.7 1013.5 0.0
03/05:00am 15.1 16.3 13.8 92 0.7 CALM 0 0 0 0 1013.5 1013.3 0.0
03/04:30am 15.4 15.5 13.9 91 0.8 NE 6 7 3 4 1013.4 1013.2 0.0
03/04:00am 15.7 15.8 14.4 92 0.7 NE 7 7 4 4 1013.4 1013.2 0.0
03/03:37am 15.5 15.3 13.7 89 1.0 NE 7 9 4 5 1013.4 1013.2 0.0
03/03:30am 15.8 15.9 14.0 89 1.0 NE 6 7 3 4 1013.3 1013.1 0.0
03/03:19am 16.0 17.1 14.5 91 0.9 NE 2 6 1 3 1013.3 1013.1 0.0
03/03:00am 15.9 16.8 13.9 88 1.1 NE 2 6 1 3 1013.3 1013.1 0.0
03/02:30am 16.7 16.8 14.0 84 1.5 NE 6 6 3 3 1013.3 1013.1 0.0
03/02:22am 16.9 17.0 14.0 83 1.7 NE 6 7 3 4 1013.3 1013.1 0.0
03/02:04am 17.3 17.6 14.6 84 1.6 NE 6 7 3 4 1013.3 1013.1 0.0
03/02:00am 17.1 17.7 14.2 83 1.7 NE 4 7 2 4 1013.3 1013.1 0.0
03/01:30am 17.5 18.8 14.0 80 2.0 CALM 0 0 0 0 1013.6 1013.4 0.0
03/01:00am 17.7 18.9 13.8 78 2.2 CALM 0 0 0 0 1013.7 1013.5 0.0
03/12:30am 18.4 18.4 13.7 74 2.7 NE 6 7 3 4 1013.8 1013.6 0.0
03/12:00am 18.8 20.0 13.9 73 2.8 CALM 0 0 0 0 1013.9 1013.7 0.0
 
Date/Time
EDT
Temp
°C
App
Temp
°C
Dew
Point
°C
Rel
Hum
%
Delta-T
°C
Wind Press
QNH
hPa
Press
MSL
hPa
Rain since
9am
mm
Dir  Spd
km/h
Gust
km/h
Spd
kts
Gust
kts
02/11:57pm 18.7 19.9 13.8 73 2.8 CALM 0 0 0 0 1014.0 1013.8 0.0
02/11:30pm 19.6 20.2 14.2 71 3.1 NE 4 6 2 3 1014.0 1013.8 0.0
02/11:00pm 20.4 20.4 14.1 67 3.7 NE 7 9 4 5 1013.9 1013.7 0.0
02/10:30pm 20.5 19.8 13.2 63 4.2 NE 9 9 5 5 1013.8 1013.6 0.0
02/10:00pm 21.4 20.9 12.8 58 4.9 NE 7 7 4 4 1013.7 1013.5 0.0
02/09:30pm 22.4 21.8 12.4 53 5.7 NE 7 9 4 5 1013.4 1013.2 0.0
02/09:00pm 23.3 22.3 12.3 50 6.3 NE 9 9 5 5 1013.2 1013.0 0.0
02/08:30pm 24.1 23.0 12.1 47 6.8 NE 9 11 5 6 1013.0 1012.8 0.0
02/08:00pm 26.0 24.7 11.4 40 8.3 NE 9 11 5 6 1012.8 1012.5 0.0
02/07:30pm 27.6 26.2 10.8 35 9.5 ENE 9 15 5 8 1012.5 1012.2 0.0
02/07:00pm 28.5 26.9 10.2 32 10.3 ENE 9 15 5 8 1012.1 1011.8 0.0
02/06:30pm 29.0 26.9 9.7 30 10.8 ENE 11 17 6 9 1012.0 1011.7 0.0

Other formats

Comma delimited format used in spreadsheet applications
http://www.bom.gov.au/fwo/IDV60801/IDV60801.94843.axf

JavaScript Object Notation format (JSON) in row-major order
http://www.bom.gov.au/fwo/IDV60801/IDV60801.94843.json

Data quality

Most of these data are generated automatically and are frequently updated. Quality checks on data are not normally performed. It is possible for incorrect values to appear. Refer to information at About Latest Weather Observations and please check the disclaimer before using these data.